NOU weather

La Tontouta International Airport
Nouméa, New Caledonia

Public forecast

Using degrees Celsius for public forecast. Weather courtesy of forecast.io.

Current aviation weather report (METAR) for La Tontouta International Airport

Retrieved 2019/10/21 13:30 UTC (24 minutes ago):

NWWW 211330Z AUTO VRB02KT 9999 FEW030 SCT036 BKN043 20/18 Q1017 NOSIG

Aviation forecast (TAF) for La Tontouta International Airport

Retrieved 2019/10/21 12:31 UTC (1 hour ago):

TAF NWWW 211100Z 2112/2212 VRB02KT 9999 SCT064 BECMG 2122/2124 15012KT TEMPO 2200/2209 14015G28KT 4000 SHRA FEW025TCU BECMG 2209/2212 VRB02KT